createdAt,value
2024-04-16T00:03:54.421Z,70.89
2024-04-16T00:08:57.536Z,70.99
2024-04-16T00:14:00.639Z,71.20
2024-04-16T00:19:03.995Z,72.17
2024-04-16T00:24:07.277Z,71.98
2024-04-16T00:29:10.289Z,72.29
2024-04-16T00:34:13.304Z,72.21
2024-04-16T00:39:16.208Z,72.13
2024-04-16T00:44:19.608Z,71.96
2024-04-16T00:49:23.244Z,72.41
2024-04-16T00:54:26.946Z,72.78
2024-04-16T00:59:32.368Z,73.00
2024-04-16T01:04:35.416Z,73.08
2024-04-16T01:09:38.433Z,73.57
2024-04-16T01:14:42.050Z,73.57
2024-04-16T01:19:44.970Z,74.16
2024-04-16T01:24:47.979Z,73.66
2024-04-16T01:29:50.977Z,74.04
2024-04-16T01:34:53.834Z,74.20
2024-04-16T01:39:56.884Z,74.97
2024-04-16T01:45:00.810Z,77.32
2024-04-16T01:50:04.538Z,78.03
2024-04-16T01:55:07.675Z,75.78
2024-04-16T02:00:11.597Z,77.53
2024-04-16T02:05:14.478Z,76.85
2024-04-16T02:10:17.526Z,76.49
2024-04-16T02:15:21.413Z,76.97
2024-04-16T02:20:24.409Z,77.00
2024-04-16T02:25:27.285Z,77.69
2024-04-16T02:30:30.539Z,77.12
2024-04-16T02:35:33.954Z,77.86
2024-04-16T02:40:37.616Z,77.18
2024-04-16T02:45:40.575Z,78.34
2024-04-16T02:50:47.273Z,77.99
2024-04-16T02:55:50.187Z,77.80
2024-04-16T03:00:53.105Z,78.43
2024-04-16T03:05:56.948Z,78.93
2024-04-16T03:11:01.055Z,79.27
2024-04-16T03:16:07.960Z,79.55
2024-04-16T03:21:10.938Z,79.73
2024-04-16T03:26:13.738Z,79.86
2024-04-16T03:31:16.672Z,81.24
2024-04-16T03:36:19.763Z,83.07
2024-04-16T03:41:24.010Z,84.01
2024-04-16T03:46:28.310Z,86.84
2024-04-16T03:51:31.332Z,88.04
2024-04-16T03:56:34.139Z,88.71
2024-04-16T04:01:37.077Z,88.74
2024-04-16T04:06:40.264Z,89.17
2024-04-16T04:11:43.161Z,87.80
2024-04-16T04:16:46.065Z,84.38
2024-04-16T04:21:48.972Z,82.32
2024-04-16T04:26:51.782Z,81.78
2024-04-16T04:31:54.697Z,81.61
2024-04-16T04:36:57.675Z,82.18
2024-04-16T04:42:00.587Z,83.60
2024-04-16T04:47:03.918Z,86.85
2024-04-16T04:52:06.815Z,88.60
2024-04-16T04:57:10.235Z,89.61
2024-04-16T05:02:13.348Z,87.63
2024-04-16T05:07:16.375Z,84.22
2024-04-16T05:12:19.341Z,83.34
2024-04-16T05:17:23.026Z,83.79
2024-04-16T05:22:26.212Z,84.62
2024-04-16T05:27:31.985Z,85.31
2024-04-16T05:32:35.079Z,86.50
2024-04-16T05:37:38.533Z,86.63
2024-04-16T05:42:42.294Z,85.92
2024-04-16T05:47:45.400Z,85.26
2024-04-16T05:52:48.406Z,84.90
2024-04-16T05:57:51.523Z,84.59
2024-04-16T06:02:54.937Z,84.20
2024-04-16T06:07:58.065Z,83.86
2024-04-16T06:13:01.177Z,83.71
2024-04-16T06:18:10.639Z,83.67
2024-04-16T06:23:13.720Z,83.61
2024-04-16T06:28:16.665Z,83.56
2024-04-16T06:33:20.420Z,83.47
2024-04-16T06:38:26.123Z,83.23
2024-04-16T06:43:29.455Z,82.97
2024-04-16T06:48:32.692Z,82.93
2024-04-16T06:53:35.650Z,82.72
2024-04-16T06:58:38.608Z,82.63
2024-04-16T07:03:41.706Z,82.47
2024-04-16T07:08:44.775Z,82.16
2024-04-16T07:13:47.768Z,82.00
2024-04-16T07:18:50.893Z,82.00
2024-04-16T07:23:55.598Z,81.91
2024-04-16T07:28:58.662Z,81.96
2024-04-16T07:34:01.785Z,81.89
2024-04-16T07:39:04.759Z,82.07
2024-04-16T07:44:07.766Z,82.32
2024-04-16T07:49:10.688Z,82.17
2024-04-16T07:54:13.780Z,81.64
2024-04-16T07:59:16.697Z,81.20
2024-04-16T08:04:19.789Z,81.03
2024-04-16T08:09:22.802Z,81.28
2024-04-16T08:14:25.900Z,81.77
2024-04-16T08:19:28.820Z,82.14
2024-04-16T08:24:31.717Z,81.92
2024-04-16T08:29:34.632Z,81.12
2024-04-16T08:34:41.516Z,80.70
2024-04-16T08:39:44.448Z,79.87
2024-04-16T08:44:48.900Z,79.24
2024-04-16T08:49:53.484Z,77.17
2024-04-16T08:54:57.771Z,75.89
2024-04-16T09:00:00.774Z,75.62
2024-04-16T09:05:05.556Z,75.60
2024-04-16T09:10:25.471Z,75.13
2024-04-16T09:15:28.508Z,75.01
2024-04-16T09:20:31.636Z,74.52
2024-04-16T09:25:40.689Z,72.80
2024-04-16T09:30:54.745Z,71.93
2024-04-16T09:35:57.960Z,72.17
2024-04-16T09:41:01.074Z,73.27
2024-04-16T09:46:05.021Z,74.59
2024-04-16T09:51:09.794Z,74.65
2024-04-16T09:56:15.734Z,74.80
2024-04-16T10:01:21.772Z,74.46
2024-04-16T10:06:25.249Z,74.32
2024-04-16T10:11:32.108Z,72.87
2024-04-16T10:16:35.943Z,72.05
2024-04-16T10:21:40.286Z,71.20
2024-04-16T10:26:44.557Z,69.84
2024-04-16T10:31:55.789Z,68.87
2024-04-16T10:36:59.132Z,67.27
2024-04-16T10:42:05.090Z,65.09
2024-04-16T10:47:08.280Z,63.43
2024-04-16T10:52:13.798Z,63.03
2024-04-16T10:57:18.008Z,60.91
2024-04-16T11:02:21.552Z,59.89
2024-04-16T11:07:25.777Z,59.12
2024-04-16T11:12:29.081Z,58.57
2024-04-16T11:17:32.714Z,57.17
2024-04-16T11:22:36.945Z,56.48
2024-04-16T11:27:39.934Z,55.19
2024-04-16T11:32:43.180Z,53.23
2024-04-16T11:37:46.620Z,52.93
2024-04-16T11:42:50.581Z,51.65
2024-04-16T11:47:53.432Z,52.08
2024-04-16T11:52:56.396Z,51.41
2024-04-16T11:57:59.413Z,51.07
2024-04-16T12:03:03.228Z,50.69
2024-04-16T12:08:10.352Z,50.63
2024-04-16T12:13:14.789Z,52.37
2024-04-16T12:18:17.904Z,53.69
2024-04-16T12:23:20.887Z,55.72
2024-04-16T12:28:23.927Z,56.19
2024-04-16T12:33:27.290Z,55.42
2024-04-16T12:38:33.501Z,55.40
2024-04-16T12:43:36.587Z,54.90
2024-04-16T12:48:42.541Z,54.36
2024-04-16T12:53:45.687Z,53.78
2024-04-16T12:58:49.187Z,54.96
2024-04-16T13:03:52.329Z,56.67
2024-04-16T13:08:55.434Z,58.28
2024-04-16T13:13:58.575Z,58.34
2024-04-16T13:19:01.848Z,58.43
2024-04-16T13:24:05.381Z,59.81
2024-04-16T13:29:08.572Z,60.45
2024-04-16T13:34:11.639Z,60.73
2024-04-16T13:39:14.798Z,63.20
2024-04-16T13:44:17.939Z,64.57
2024-04-16T13:49:21.276Z,65.19
2024-04-16T13:54:24.437Z,64.37
2024-04-16T13:59:27.435Z,63.84
2024-04-16T14:04:30.480Z,63.44
2024-04-16T14:09:33.764Z,63.48
2024-04-16T14:14:36.968Z,63.44
2024-04-16T14:19:41.481Z,64.07
2024-04-16T14:24:45.217Z,64.38
2024-04-16T14:29:48.350Z,64.82
2024-04-16T14:34:51.338Z,64.89
2024-04-16T14:39:54.164Z,64.60
2024-04-16T14:44:57.269Z,64.41
2024-04-16T14:50:00.401Z,64.37
2024-04-16T14:55:03.593Z,64.50
2024-04-16T15:00:07.438Z,64.49
2024-04-16T15:05:11.036Z,64.73
2024-04-16T15:10:14.264Z,63.81
2024-04-16T15:15:19.777Z,65.80
2024-04-16T15:20:24.348Z,67.99
2024-04-16T15:25:27.524Z,69.46
2024-04-16T15:30:30.886Z,70.04
2024-04-16T15:35:49.639Z,70.13
2024-04-16T15:40:52.689Z,70.32
2024-04-16T15:45:55.807Z,70.47
2024-04-16T15:50:59.092Z,70.54
2024-04-16T15:56:02.570Z,70.30
2024-04-16T16:01:09.295Z,70.12
2024-04-16T16:06:12.342Z,69.67
2024-04-16T16:11:16.680Z,69.43
2024-04-16T16:16:19.993Z,69.27
2024-04-16T16:21:23.607Z,69.39
2024-04-16T16:26:27.207Z,69.41
2024-04-16T16:31:35.239Z,69.70
2024-04-16T16:36:38.741Z,69.88
2024-04-16T16:41:43.365Z,69.97
2024-04-16T16:46:46.914Z,70.30
2024-04-16T16:51:52.711Z,70.69
2024-04-16T16:56:56.229Z,71.30
2024-04-16T17:01:59.834Z,72.16
2024-04-16T17:07:03.688Z,72.51
2024-04-16T17:12:07.428Z,73.30
2024-04-16T17:17:12.964Z,74.18
2024-04-16T17:22:16.182Z,74.28
2024-04-16T17:27:19.558Z,75.64
2024-04-16T17:32:22.749Z,77.08
2024-04-16T17:37:25.812Z,77.31
2024-04-16T17:42:29.592Z,77.48
2024-04-16T17:47:32.926Z,77.48
2024-04-16T17:52:36.354Z,77.84
2024-04-16T17:57:42.028Z,77.80
2024-04-16T18:02:45.645Z,77.59
2024-04-16T18:07:48.736Z,77.60
2024-04-16T18:12:52.145Z,78.01
2024-04-16T18:17:55.100Z,78.34
2024-04-16T18:22:58.155Z,78.96
2024-04-16T18:28:01.167Z,78.59
2024-04-16T18:33:05.175Z,78.47
2024-04-16T18:38:10.155Z,78.95
2024-04-16T18:43:13.056Z,79.67
2024-04-16T18:48:18.501Z,80.02
2024-04-16T18:53:21.671Z,79.93
2024-04-16T18:58:24.835Z,79.79
2024-04-16T19:03:27.967Z,79.64
2024-04-16T19:08:31.063Z,79.84
2024-04-16T19:13:34.196Z,80.64
2024-04-16T19:18:38.435Z,80.89
2024-04-16T19:23:41.512Z,80.61
2024-04-16T19:28:44.784Z,80.66
2024-04-16T19:33:50.689Z,80.69
2024-04-16T19:38:53.635Z,81.12
2024-04-16T19:43:57.116Z,81.93
2024-04-16T19:49:00.133Z,81.85
2024-04-16T19:54:03.410Z,81.50
2024-04-16T19:59:06.552Z,81.31
2024-04-16T20:04:11.662Z,81.10
2024-04-16T20:09:16.386Z,81.06
2024-04-16T20:14:19.944Z,81.22
2024-04-16T20:19:22.997Z,81.08
2024-04-16T20:24:26.398Z,81.02
2024-04-16T20:29:30.244Z,80.97
2024-04-16T20:34:40.497Z,81.01
2024-04-16T20:39:50.525Z,81.11
2024-04-16T20:44:53.587Z,80.98
2024-04-16T20:49:56.887Z,80.97
2024-04-16T20:55:00.635Z,81.02
2024-04-16T21:00:04.208Z,80.94
2024-04-16T21:05:07.827Z,81.06
2024-04-16T21:10:11.011Z,81.35
2024-04-16T21:15:14.187Z,81.39
2024-04-16T21:20:20.061Z,81.32
2024-04-16T21:25:24.835Z,81.34
2024-04-16T21:30:27.734Z,81.33
2024-04-16T21:35:32.659Z,81.41
2024-04-16T21:40:35.593Z,81.47
2024-04-16T21:45:38.676Z,81.67
2024-04-16T21:50:41.571Z,81.77
2024-04-16T21:55:44.741Z,81.84
2024-04-16T22:00:47.792Z,81.80
2024-04-16T22:05:50.794Z,81.74
2024-04-16T22:11:03.711Z,81.73
2024-04-16T22:16:07.674Z,81.75
2024-04-16T22:21:10.776Z,81.88
2024-04-16T22:26:13.676Z,82.27
2024-04-16T22:31:16.808Z,82.69
2024-04-16T22:36:22.822Z,82.76
2024-04-16T22:41:26.283Z,82.53
2024-04-16T22:46:30.670Z,82.69
2024-04-16T22:51:33.731Z,82.45
2024-04-16T22:56:36.533Z,82.45
2024-04-16T23:01:39.463Z,82.47
2024-04-16T23:06:42.346Z,82.35
2024-04-16T23:11:45.400Z,82.29
2024-04-16T23:16:48.395Z,82.25
2024-04-16T23:21:51.360Z,82.43
2024-04-16T23:26:54.273Z,82.79
2024-04-16T23:31:57.367Z,83.05
2024-04-16T23:37:00.410Z,83.05
2024-04-16T23:42:03.389Z,82.84
2024-04-16T23:47:06.409Z,82.49
2024-04-16T23:52:09.409Z,82.34
2024-04-16T23:57:12.513Z,82.47
